sensor_id;sensor_type;location;lat;lon;timestamp;temperature;humidity
13529;DHT22;4419;50.882;4.718;2022-09-03T00:00:16;21.20;29.80
13529;DHT22;4419;50.882;4.718;2022-09-03T00:02:44;21.10;30.00
13529;DHT22;4419;50.882;4.718;2022-09-03T00:13:14;21.10;30.00
13529;DHT22;4419;50.882;4.718;2022-09-03T00:15:40;21.10;30.00
13529;DHT22;4419;50.882;4.718;2022-09-03T00:18:08;21.10;30.00
13529;DHT22;4419;50.882;4.718;2022-09-03T00:20:42;21.10;30.00
13529;DHT22;4419;50.882;4.718;2022-09-03T00:23:11;21.10;30.00
13529;DHT22;4419;50.882;4.718;2022-09-03T00:25:44;21.00;30.20
13529;DHT22;4419;50.882;4.718;2022-09-03T00:28:13;21.00;30.00
13529;DHT22;4419;50.882;4.718;2022-09-03T00:30:40;21.00;30.00
13529;DHT22;4419;50.882;4.718;2022-09-03T00:33:08;21.00;30.10
13529;DHT22;4419;50.882;4.718;2022-09-03T00:38:07;20.90;30.00
13529;DHT22;4419;50.882;4.718;2022-09-03T00:48:26;21.00;29.90
13529;DHT22;4419;50.882;4.718;2022-09-03T00:56:35;21.10;29.90
13529;DHT22;4419;50.882;4.718;2022-09-03T00:59:11;21.20;29.70
13529;DHT22;4419;50.882;4.718;2022-09-03T01:01:43;21.20;29.50
13529;DHT22;4419;50.882;4.718;2022-09-03T01:16:52;21.40;29.20
13529;DHT22;4419;50.882;4.718;2022-09-03T01:30:04;21.40;29.50
13529;DHT22;4419;50.882;4.718;2022-09-03T01:32:40;21.40;29.30
13529;DHT22;4419;50.882;4.718;2022-09-03T01:48:36;21.30;29.40
13529;DHT22;4419;50.882;4.718;2022-09-03T02:01:29;21.40;30.10
13529;DHT22;4419;50.882;4.718;2022-09-03T02:03:56;21.30;30.40
13529;DHT22;4419;50.882;4.718;2022-09-03T02:06:24;21.30;30.40
13529;DHT22;4419;50.882;4.718;2022-09-03T02:08:51;21.10;30.80
13529;DHT22;4419;50.882;4.718;2022-09-03T02:11:17;21.10;31.10
13529;DHT22;4419;50.882;4.718;2022-09-03T02:16:12;20.90;31.10
13529;DHT22;4419;50.882;4.718;2022-09-03T02:18:40;20.80;32.10
13529;DHT22;4419;50.882;4.718;2022-09-03T02:21:07;20.70;32.20
13529;DHT22;4419;50.882;4.718;2022-09-03T02:23:35;20.80;32.00
13529;DHT22;4419;50.882;4.718;2022-09-03T02:26:03;20.70;31.90
13529;DHT22;4419;50.882;4.718;2022-09-03T02:28:29;20.70;32.20
13529;DHT22;4419;50.882;4.718;2022-09-03T02:30:56;20.70;31.80
13529;DHT22;4419;50.882;4.718;2022-09-03T02:33:21;20.70;31.60
13529;DHT22;4419;50.882;4.718;2022-09-03T02:35:47;20.70;31.60
13529;DHT22;4419;50.882;4.718;2022-09-03T02:38:17;20.70;31.60
13529;DHT22;4419;50.882;4.718;2022-09-03T02:40:44;20.80;31.70
13529;DHT22;4419;50.882;4.718;2022-09-03T02:43:18;20.80;31.30
13529;DHT22;4419;50.882;4.718;2022-09-03T02:45:45;20.80;31.00
13529;DHT22;4419;50.882;4.718;2022-09-03T02:48:11;20.80;31.10
13529;DHT22;4419;50.882;4.718;2022-09-03T02:50:41;20.80;31.30
13529;DHT22;4419;50.882;4.718;2022-09-03T02:53:07;20.70;32.20
13529;DHT22;4419;50.882;4.718;2022-09-03T02:55:33;20.80;32.20
13529;DHT22;4419;50.882;4.718;2022-09-03T02:58:00;20.80;31.80
13529;DHT22;4419;50.882;4.718;2022-09-03T03:00:25;20.80;31.40
13529;DHT22;4419;50.882;4.718;2022-09-03T03:02:55;20.80;31.60
13529;DHT22;4419;50.882;4.718;2022-09-03T03:05:23;20.70;32.50
13529;DHT22;4419;50.882;4.718;2022-09-03T03:07:50;20.60;32.90
13529;DHT22;4419;50.882;4.718;2022-09-03T03:10:16;20.60;33.50
13529;DHT22;4419;50.882;4.718;2022-09-03T03:12:41;20.60;33.00
13529;DHT22;4419;50.882;4.718;2022-09-03T03:15:08;20.60;33.30
13529;DHT22;4419;50.882;4.718;2022-09-03T03:17:33;20.60;32.80
13529;DHT22;4419;50.882;4.718;2022-09-03T03:19:59;20.60;33.30
13529;DHT22;4419;50.882;4.718;2022-09-03T03:22:25;20.50;33.00
13529;DHT22;4419;50.882;4.718;2022-09-03T03:24:50;20.60;34.10
13529;DHT22;4419;50.882;4.718;2022-09-03T03:27:17;20.50;33.60
13529;DHT22;4419;50.882;4.718;2022-09-03T03:29:43;20.40;33.50
13529;DHT22;4419;50.882;4.718;2022-09-03T03:32:08;20.50;33.40
13529;DHT22;4419;50.882;4.718;2022-09-03T03:34:34;20.40;33.80
13529;DHT22;4419;50.882;4.718;2022-09-03T03:37:00;20.40;33.40
13529;DHT22;4419;50.882;4.718;2022-09-03T03:39:26;20.40;34.20
13529;DHT22;4419;50.882;4.718;2022-09-03T03:41:51;20.40;33.50
13529;DHT22;4419;50.882;4.718;2022-09-03T03:44:17;20.40;33.50
13529;DHT22;4419;50.882;4.718;2022-09-03T03:46:44;20.40;33.50
13529;DHT22;4419;50.882;4.718;2022-09-03T03:49:11;20.40;33.50
13529;DHT22;4419;50.882;4.718;2022-09-03T03:51:36;20.20;33.70
13529;DHT22;4419;50.882;4.718;2022-09-03T03:54:03;20.20;34.10
13529;DHT22;4419;50.882;4.718;2022-09-03T03:56:29;20.10;34.80
13529;DHT22;4419;50.882;4.718;2022-09-03T03:58:55;20.20;34.90
13529;DHT22;4419;50.882;4.718;2022-09-03T04:01:22;20.20;34.80
13529;DHT22;4419;50.882;4.718;2022-09-03T04:03:48;20.30;34.20
13529;DHT22;4419;50.882;4.718;2022-09-03T04:06:15;20.30;33.90
13529;DHT22;4419;50.882;4.718;2022-09-03T04:08:42;20.40;33.80
13529;DHT22;4419;50.882;4.718;2022-09-03T04:11:08;20.50;33.70
13529;DHT22;4419;50.882;4.718;2022-09-03T04:13:35;20.50;34.30
13529;DHT22;4419;50.882;4.718;2022-09-03T04:16:05;20.30;33.90
13529;DHT22;4419;50.882;4.718;2022-09-03T04:18:31;20.30;34.10
13529;DHT22;4419;50.882;4.718;2022-09-03T04:20:59;20.40;34.00
13529;DHT22;4419;50.882;4.718;2022-09-03T04:23:25;20.40;34.10
13529;DHT22;4419;50.882;4.718;2022-09-03T04:25:51;20.40;35.00
13529;DHT22;4419;50.882;4.718;2022-09-03T04:28:17;20.40;34.80
13529;DHT22;4419;50.882;4.718;2022-09-03T04:30:42;20.40;34.90
13529;DHT22;4419;50.882;4.718;2022-09-03T04:33:08;20.50;34.70
13529;DHT22;4419;50.882;4.718;2022-09-03T04:35:34;20.40;35.10
13529;DHT22;4419;50.882;4.718;2022-09-03T04:38:00;20.40;35.10
13529;DHT22;4419;50.882;4.718;2022-09-03T04:40:26;20.50;35.00
13529;DHT22;4419;50.882;4.718;2022-09-03T04:42:55;20.50;34.70
13529;DHT22;4419;50.882;4.718;2022-09-03T04:45:21;20.40;35.50
13529;DHT22;4419;50.882;4.718;2022-09-03T04:50:41;20.50;34.80
13529;DHT22;4419;50.882;4.718;2022-09-03T04:53:07;20.40;35.20
13529;DHT22;4419;50.882;4.718;2022-09-03T04:55:36;20.50;34.80
13529;DHT22;4419;50.882;4.718;2022-09-03T04:58:03;20.50;34.80
13529;DHT22;4419;50.882;4.718;2022-09-03T05:00:29;20.60;35.30
13529;DHT22;4419;50.882;4.718;2022-09-03T05:02:54;20.50;36.50
13529;DHT22;4419;50.882;4.718;2022-09-03T05:05:20;20.30;37.40
13529;DHT22;4419;50.882;4.718;2022-09-03T05:07:45;20.30;38.20
13529;DHT22;4419;50.882;4.718;2022-09-03T05:10:12;20.30;39.10
13529;DHT22;4419;50.882;4.718;2022-09-03T05:12:56;20.30;38.50
13529;DHT22;4419;50.882;4.718;2022-09-03T05:15:22;20.20;39.20
13529;DHT22;4419;50.882;4.718;2022-09-03T05:17:48;20.20;38.30
13529;DHT22;4419;50.882;4.718;2022-09-03T05:20:16;20.10;38.30
13529;DHT22;4419;50.882;4.718;2022-09-03T05:22:42;20.10;38.90
13529;DHT22;4419;50.882;4.718;2022-09-03T05:25:08;20.10;39.00
13529;DHT22;4419;50.882;4.718;2022-09-03T05:27:33;20.10;39.40
13529;DHT22;4419;50.882;4.718;2022-09-03T05:29:59;20.10;39.10
13529;DHT22;4419;50.882;4.718;2022-09-03T05:32:25;20.10;38.70
13529;DHT22;4419;50.882;4.718;2022-09-03T05:34:52;20.10;38.70
13529;DHT22;4419;50.882;4.718;2022-09-03T05:37:18;20.20;38.50
13529;DHT22;4419;50.882;4.718;2022-09-03T05:39:44;20.10;38.00
13529;DHT22;4419;50.882;4.718;2022-09-03T05:42:10;20.10;38.40
13529;DHT22;4419;50.882;4.718;2022-09-03T05:44:37;20.30;37.70
13529;DHT22;4419;50.882;4.718;2022-09-03T05:47:03;20.30;37.10
13529;DHT22;4419;50.882;4.718;2022-09-03T05:49:29;20.30;36.60
13529;DHT22;4419;50.882;4.718;2022-09-03T05:51:55;20.20;36.90
13529;DHT22;4419;50.882;4.718;2022-09-03T05:54:21;20.20;36.40
13529;DHT22;4419;50.882;4.718;2022-09-03T05:56:47;20.10;36.50
13529;DHT22;4419;50.882;4.718;2022-09-03T05:59:12;20.10;37.00
13529;DHT22;4419;50.882;4.718;2022-09-03T06:01:39;20.10;37.70
13529;DHT22;4419;50.882;4.718;2022-09-03T06:04:06;20.10;37.40
13529;DHT22;4419;50.882;4.718;2022-09-03T06:06:32;20.10;39.00
13529;DHT22;4419;50.882;4.718;2022-09-03T06:08:59;20.10;39.50
13529;DHT22;4419;50.882;4.718;2022-09-03T06:11:27;20.10;39.90
13529;DHT22;4419;50.882;4.718;2022-09-03T06:13:57;20.00;38.70
13529;DHT22;4419;50.882;4.718;2022-09-03T06:16:26;19.90;39.10
13529;DHT22;4419;50.882;4.718;2022-09-03T06:18:52;19.90;39.20
13529;DHT22;4419;50.882;4.718;2022-09-03T06:21:21;20.00;39.10
13529;DHT22;4419;50.882;4.718;2022-09-03T06:23:51;20.00;39.40
13529;DHT22;4419;50.882;4.718;2022-09-03T06:26:17;20.20;39.80
13529;DHT22;4419;50.882;4.718;2022-09-03T06:28:43;20.30;39.10
13529;DHT22;4419;50.882;4.718;2022-09-03T06:31:12;20.30;38.70
13529;DHT22;4419;50.882;4.718;2022-09-03T06:33:39;20.30;39.00
13529;DHT22;4419;50.882;4.718;2022-09-03T06:36:06;20.30;38.90
13529;DHT22;4419;50.882;4.718;2022-09-03T06:38:33;20.20;39.20
13529;DHT22;4419;50.882;4.718;2022-09-03T06:41:03;20.30;39.00
13529;DHT22;4419;50.882;4.718;2022-09-03T06:43:31;20.30;39.10
13529;DHT22;4419;50.882;4.718;2022-09-03T06:45:58;20.40;39.00
13529;DHT22;4419;50.882;4.718;2022-09-03T06:48:24;20.30;39.10
13529;DHT22;4419;50.882;4.718;2022-09-03T06:50:57;20.30;39.30
13529;DHT22;4419;50.882;4.718;2022-09-03T06:53:23;20.30;39.70
13529;DHT22;4419;50.882;4.718;2022-09-03T06:55:56;20.30;40.00
13529;DHT22;4419;50.882;4.718;2022-09-03T06:58:23;20.30;40.20
13529;DHT22;4419;50.882;4.718;2022-09-03T07:00:49;20.40;40.30
13529;DHT22;4419;50.882;4.718;2022-09-03T07:03:16;20.50;40.30
13529;DHT22;4419;50.882;4.718;2022-09-03T07:05:42;20.50;40.70
13529;DHT22;4419;50.882;4.718;2022-09-03T07:08:08;20.60;40.60
13529;DHT22;4419;50.882;4.718;2022-09-03T07:10:37;20.60;40.40
13529;DHT22;4419;50.882;4.718;2022-09-03T07:13:04;20.60;40.50
13529;DHT22;4419;50.882;4.718;2022-09-03T07:15:31;20.70;40.40
13529;DHT22;4419;50.882;4.718;2022-09-03T07:17:57;20.70;40.30
13529;DHT22;4419;50.882;4.718;2022-09-03T07:20:23;20.70;40.50
13529;DHT22;4419;50.882;4.718;2022-09-03T07:22:48;20.70;40.40
13529;DHT22;4419;50.882;4.718;2022-09-03T07:25:14;20.80;40.60
13529;DHT22;4419;50.882;4.718;2022-09-03T07:27:40;20.80;40.50
13529;DHT22;4419;50.882;4.718;2022-09-03T07:30:05;20.80;40.70
13529;DHT22;4419;50.882;4.718;2022-09-03T07:32:34;20.90;40.90
13529;DHT22;4419;50.882;4.718;2022-09-03T07:35:00;21.00;40.70
13529;DHT22;4419;50.882;4.718;2022-09-03T07:37:26;21.10;41.30
13529;DHT22;4419;50.882;4.718;2022-09-03T07:39:52;21.20;40.60
13529;DHT22;4419;50.882;4.718;2022-09-03T07:42:18;21.20;40.60
13529;DHT22;4419;50.882;4.718;2022-09-03T07:44:44;21.20;40.50
13529;DHT22;4419;50.882;4.718;2022-09-03T07:47:10;21.20;40.70
13529;DHT22;4419;50.882;4.718;2022-09-03T07:49:37;21.30;41.00
13529;DHT22;4419;50.882;4.718;2022-09-03T07:52:03;21.30;41.40
13529;DHT22;4419;50.882;4.718;2022-09-03T07:54:29;21.30;40.90
13529;DHT22;4419;50.882;4.718;2022-09-03T07:56:56;21.40;40.90
13529;DHT22;4419;50.882;4.718;2022-09-03T07:59:21;21.30;40.90
13529;DHT22;4419;50.882;4.718;2022-09-03T08:01:48;21.40;41.40
13529;DHT22;4419;50.882;4.718;2022-09-03T08:04:15;21.40;41.60
13529;DHT22;4419;50.882;4.718;2022-09-03T08:06:41;21.40;41.70
13529;DHT22;4419;50.882;4.718;2022-09-03T08:09:09;21.50;41.90
13529;DHT22;4419;50.882;4.718;2022-09-03T08:11:36;21.50;42.00
13529;DHT22;4419;50.882;4.718;2022-09-03T08:14:03;21.50;42.00
13529;DHT22;4419;50.882;4.718;2022-09-03T08:16:35;21.60;42.10
13529;DHT22;4419;50.882;4.718;2022-09-03T08:19:01;21.60;42.20
13529;DHT22;4419;50.882;4.718;2022-09-03T08:21:27;21.60;42.10
13529;DHT22;4419;50.882;4.718;2022-09-03T08:23:53;21.60;42.30
13529;DHT22;4419;50.882;4.718;2022-09-03T08:26:21;21.60;42.90
13529;DHT22;4419;50.882;4.718;2022-09-03T08:28:47;21.60;43.20
13529;DHT22;4419;50.882;4.718;2022-09-03T08:31:15;21.60;43.10
13529;DHT22;4419;50.882;4.718;2022-09-03T08:33:42;21.70;43.40
13529;DHT22;4419;50.882;4.718;2022-09-03T08:36:14;21.70;43.50
13529;DHT22;4419;50.882;4.718;2022-09-03T08:38:42;21.70;43.80
13529;DHT22;4419;50.882;4.718;2022-09-03T08:43:49;21.80;44.30
13529;DHT22;4419;50.882;4.718;2022-09-03T08:46:18;21.90;44.20
13529;DHT22;4419;50.882;4.718;2022-09-03T08:48:44;22.10;44.60
13529;DHT22;4419;50.882;4.718;2022-09-03T08:51:11;22.30;44.90
13529;DHT22;4419;50.882;4.718;2022-09-03T08:56:07;22.50;45.00
13529;DHT22;4419;50.882;4.718;2022-09-03T08:58:34;22.70;45.40
13529;DHT22;4419;50.882;4.718;2022-09-03T09:01:09;22.90;45.40
13529;DHT22;4419;50.882;4.718;2022-09-03T09:06:40;23.10;45.80
13529;DHT22;4419;50.882;4.718;2022-09-03T09:09:22;23.10;45.50
13529;DHT22;4419;50.882;4.718;2022-09-03T09:17:21;23.50;46.00
13529;DHT22;4419;50.882;4.718;2022-09-03T09:20:02;23.50;46.30
13529;DHT22;4419;50.882;4.718;2022-09-03T09:22:34;23.50;46.40
13529;DHT22;4419;50.882;4.718;2022-09-03T09:25:02;23.40;46.10
13529;DHT22;4419;50.882;4.718;2022-09-03T09:27:30;23.30;46.60
13529;DHT22;4419;50.882;4.718;2022-09-03T09:29:56;23.30;47.10
13529;DHT22;4419;50.882;4.718;2022-09-03T09:32:26;23.20;48.00
13529;DHT22;4419;50.882;4.718;2022-09-03T09:34:51;23.30;48.20
13529;DHT22;4419;50.882;4.718;2022-09-03T09:37:19;23.30;48.50
13529;DHT22;4419;50.882;4.718;2022-09-03T09:39:58;23.40;48.50
13529;DHT22;4419;50.882;4.718;2022-09-03T09:42:24;23.60;48.30
13529;DHT22;4419;50.882;4.718;2022-09-03T09:44:50;23.60;48.10
13529;DHT22;4419;50.882;4.718;2022-09-03T09:47:26;23.70;48.30
13529;DHT22;4419;50.882;4.718;2022-09-03T09:49:54;24.00;49.10
13529;DHT22;4419;50.882;4.718;2022-09-03T09:52:19;24.20;47.50
13529;DHT22;4419;50.882;4.718;2022-09-03T09:54:50;24.40;47.20
13529;DHT22;4419;50.882;4.718;2022-09-03T09:57:20;24.50;47.50
13529;DHT22;4419;50.882;4.718;2022-09-03T09:59:46;24.70;48.50
13529;DHT22;4419;50.882;4.718;2022-09-03T10:02:13;25.10;46.30
13529;DHT22;4419;50.882;4.718;2022-09-03T10:04:39;25.20;45.00
13529;DHT22;4419;50.882;4.718;2022-09-03T10:09:44;25.20;46.00
13529;DHT22;4419;50.882;4.718;2022-09-03T10:12:17;25.10;45.60
13529;DHT22;4419;50.882;4.718;2022-09-03T10:14:50;25.10;45.50
13529;DHT22;4419;50.882;4.718;2022-09-03T10:17:20;25.10;46.00
13529;DHT22;4419;50.882;4.718;2022-09-03T10:22:44;25.10;46.60
13529;DHT22;4419;50.882;4.718;2022-09-03T10:25:11;25.30;46.60
13529;DHT22;4419;50.882;4.718;2022-09-03T10:27:39;25.30;45.70
13529;DHT22;4419;50.882;4.718;2022-09-03T10:30:05;25.30;46.10
13529;DHT22;4419;50.882;4.718;2022-09-03T10:35:35;25.00;46.50
13529;DHT22;4419;50.882;4.718;2022-09-03T10:40:39;25.20;46.50
13529;DHT22;4419;50.882;4.718;2022-09-03T10:45:41;25.30;47.30
13529;DHT22;4419;50.882;4.718;2022-09-03T10:53:21;26.10;43.80
13529;DHT22;4419;50.882;4.718;2022-09-03T10:55:49;26.40;44.10
13529;DHT22;4419;50.882;4.718;2022-09-03T11:01:04;26.80;42.20
13529;DHT22;4419;50.882;4.718;2022-09-03T11:06:09;26.90;41.80
13529;DHT22;4419;50.882;4.718;2022-09-03T11:08:48;27.00;41.00
13529;DHT22;4419;50.882;4.718;2022-09-03T11:11:17;26.90;40.80
13529;DHT22;4419;50.882;4.718;2022-09-03T11:13:47;26.50;41.00
13529;DHT22;4419;50.882;4.718;2022-09-03T11:16:17;26.20;42.50
13529;DHT22;4419;50.882;4.718;2022-09-03T11:19:04;26.20;42.30
13529;DHT22;4419;50.882;4.718;2022-09-03T11:21:30;26.00;42.90
13529;DHT22;4419;50.882;4.718;2022-09-03T11:24:19;26.20;43.10
13529;DHT22;4419;50.882;4.718;2022-09-03T11:26:43;26.30;43.10
13529;DHT22;4419;50.882;4.718;2022-09-03T11:29:18;26.40;43.40
13529;DHT22;4419;50.882;4.718;2022-09-03T11:31:53;26.40;43.40
13529;DHT22;4419;50.882;4.718;2022-09-03T11:36:51;27.20;40.00
13529;DHT22;4419;50.882;4.718;2022-09-03T11:39:31;27.50;38.70
13529;DHT22;4419;50.882;4.718;2022-09-03T11:41:58;27.50;38.60
13529;DHT22;4419;50.882;4.718;2022-09-03T11:44:32;27.40;38.60
13529;DHT22;4419;50.882;4.718;2022-09-03T11:47:00;27.20;38.80
13529;DHT22;4419;50.882;4.718;2022-09-03T11:49:27;27.20;39.90
13529;DHT22;4419;50.882;4.718;2022-09-03T11:52:03;27.10;40.30
13529;DHT22;4419;50.882;4.718;2022-09-03T11:54:31;27.00;40.60
13529;DHT22;4419;50.882;4.718;2022-09-03T11:57:14;27.10;40.40
13529;DHT22;4419;50.882;4.718;2022-09-03T11:59:42;26.90;40.20
13529;DHT22;4419;50.882;4.718;2022-09-03T12:02:23;27.00;40.30
13529;DHT22;4419;50.882;4.718;2022-09-03T12:05:11;27.00;40.10
13529;DHT22;4419;50.882;4.718;2022-09-03T12:07:48;26.80;39.90
13529;DHT22;4419;50.882;4.718;2022-09-03T12:10:22;26.70;39.90
13529;DHT22;4419;50.882;4.718;2022-09-03T12:18:05;27.80;38.00
13529;DHT22;4419;50.882;4.718;2022-09-03T12:20:44;27.90;36.30
13529;DHT22;4419;50.882;4.718;2022-09-03T12:23:10;28.00;37.40
13529;DHT22;4419;50.882;4.718;2022-09-03T12:25:41;27.60;36.60
13529;DHT22;4419;50.882;4.718;2022-09-03T12:28:10;27.60;36.50
13529;DHT22;4419;50.882;4.718;2022-09-03T12:30:37;27.30;36.60
13529;DHT22;4419;50.882;4.718;2022-09-03T12:33:06;27.20;37.50
13529;DHT22;4419;50.882;4.718;2022-09-03T12:35:33;27.00;37.70
13529;DHT22;4419;50.882;4.718;2022-09-03T12:37:58;27.00;38.50
13529;DHT22;4419;50.882;4.718;2022-09-03T12:40:25;27.00;37.90
13529;DHT22;4419;50.882;4.718;2022-09-03T12:42:51;27.00;38.70
13529;DHT22;4419;50.882;4.718;2022-09-03T12:45:18;27.20;38.00
13529;DHT22;4419;50.882;4.718;2022-09-03T12:47:44;27.10;37.80
13529;DHT22;4419;50.882;4.718;2022-09-03T12:50:13;27.20;38.10
13529;DHT22;4419;50.882;4.718;2022-09-03T12:52:41;27.00;38.90
13529;DHT22;4419;50.882;4.718;2022-09-03T13:00:26;27.10;38.90
13529;DHT22;4419;50.882;4.718;2022-09-03T13:03:02;27.00;40.00
13529;DHT22;4419;50.882;4.718;2022-09-03T13:05:44;26.90;39.50
13529;DHT22;4419;50.882;4.718;2022-09-03T13:08:13;27.10;39.70
13529;DHT22;4419;50.882;4.718;2022-09-03T13:10:40;27.10;39.60
13529;DHT22;4419;50.882;4.718;2022-09-03T13:13:20;27.10;39.00
13529;DHT22;4419;50.882;4.718;2022-09-03T13:23:39;27.10;39.10
13529;DHT22;4419;50.882;4.718;2022-09-03T13:26:16;27.10;39.60
13529;DHT22;4419;50.882;4.718;2022-09-03T13:34:08;27.00;39.60
13529;DHT22;4419;50.882;4.718;2022-09-03T13:37:20;27.10;39.70
13529;DHT22;4419;50.882;4.718;2022-09-03T13:42:12;27.10;39.70
13529;DHT22;4419;50.882;4.718;2022-09-03T13:45:20;27.20;39.50
13529;DHT22;4419;50.882;4.718;2022-09-03T13:47:36;27.20;39.50
13529;DHT22;4419;50.882;4.718;2022-09-03T13:50:25;27.10;39.30
13529;DHT22;4419;50.882;4.718;2022-09-03T13:58:00;27.30;38.60
13529;DHT22;4419;50.882;4.718;2022-09-03T14:00:30;27.20;38.90
13529;DHT22;4419;50.882;4.718;2022-09-03T14:05:51;27.00;38.80
13529;DHT22;4419;50.882;4.718;2022-09-03T14:17:04;27.30;38.30
13529;DHT22;4419;50.882;4.718;2022-09-03T14:19:05;27.30;39.30
13529;DHT22;4419;50.882;4.718;2022-09-03T14:24:07;27.30;39.00
13529;DHT22;4419;50.882;4.718;2022-09-03T14:26:35;27.40;38.10
13529;DHT22;4419;50.882;4.718;2022-09-03T14:36:55;28.00;36.90
13529;DHT22;4419;50.882;4.718;2022-09-03T14:44:38;28.40;35.90
13529;DHT22;4419;50.882;4.718;2022-09-03T14:47:06;28.50;36.60
13529;DHT22;4419;50.882;4.718;2022-09-03T15:00:32;28.30;35.80
13529;DHT22;4419;50.882;4.718;2022-09-03T15:03:14;28.00;36.20
13529;DHT22;4419;50.882;4.718;2022-09-03T15:10:58;27.70;36.70
13529;DHT22;4419;50.882;4.718;2022-09-03T15:13:26;27.50;37.70
13529;DHT22;4419;50.882;4.718;2022-09-03T15:19:33;27.50;37.90
13529;DHT22;4419;50.882;4.718;2022-09-03T15:26:46;27.30;37.20
13529;DHT22;4419;50.882;4.718;2022-09-03T15:29:17;27.20;37.30
13529;DHT22;4419;50.882;4.718;2022-09-03T15:36:50;27.80;37.60
13529;DHT22;4419;50.882;4.718;2022-09-03T15:39:22;27.80;37.60
13529;DHT22;4419;50.882;4.718;2022-09-03T15:41:55;27.60;37.50
13529;DHT22;4419;50.882;4.718;2022-09-03T15:44:21;27.60;38.10
13529;DHT22;4419;50.882;4.718;2022-09-03T15:52:01;27.40;38.00
13529;DHT22;4419;50.882;4.718;2022-09-03T16:02:19;27.00;38.60
13529;DHT22;4419;50.882;4.718;2022-09-03T16:17:27;26.50;39.70
13529;DHT22;4419;50.882;4.718;2022-09-03T16:27:40;26.40;40.60
13529;DHT22;4419;50.882;4.718;2022-09-03T16:30:11;26.50;40.60
13529;DHT22;4419;50.882;4.718;2022-09-03T16:40:35;26.30;44.50
13529;DHT22;4419;50.882;4.718;2022-09-03T16:43:18;25.90;48.40
13529;DHT22;4419;50.882;4.718;2022-09-03T16:48:25;24.20;99.90
13529;DHT22;4419;50.882;4.718;2022-09-03T16:53:51;23.70;99.90
13529;DHT22;4419;50.882;4.718;2022-09-03T16:56:43;23.60;99.90
13529;DHT22;4419;50.882;4.718;2022-09-03T16:59:18;23.80;99.90
13529;DHT22;4419;50.882;4.718;2022-09-03T17:02:16;23.90;99.90
13529;DHT22;4419;50.882;4.718;2022-09-03T17:20:22;23.80;92.10
13529;DHT22;4419;50.882;4.718;2022-09-03T17:33:31;23.60;99.90
13529;DHT22;4419;50.882;4.718;2022-09-03T17:38:51;23.50;99.90
13529;DHT22;4419;50.882;4.718;2022-09-03T17:46:19;23.50;99.90
13529;DHT22;4419;50.882;4.718;2022-09-03T17:48:53;23.60;99.90
13529;DHT22;4419;50.882;4.718;2022-09-03T17:51:38;23.50;99.90
13529;DHT22;4419;50.882;4.718;2022-09-03T17:54:32;23.40;99.90
13529;DHT22;4419;50.882;4.718;2022-09-03T17:57:14;23.20;99.90
13529;DHT22;4419;50.882;4.718;2022-09-03T17:59:57;23.20;99.90
13529;DHT22;4419;50.882;4.718;2022-09-03T18:02:41;23.30;99.90
13529;DHT22;4419;50.882;4.718;2022-09-03T18:05:25;23.30;99.90
13529;DHT22;4419;50.882;4.718;2022-09-03T18:10:29;23.30;99.90
13529;DHT22;4419;50.882;4.718;2022-09-03T18:13:05;23.40;99.90
13529;DHT22;4419;50.882;4.718;2022-09-03T18:15:51;23.50;99.90
13529;DHT22;4419;50.882;4.718;2022-09-03T18:18:30;23.50;99.90
13529;DHT22;4419;50.882;4.718;2022-09-03T18:20:58;23.70;99.90
13529;DHT22;4419;50.882;4.718;2022-09-03T18:26:28;23.70;99.90
13529;DHT22;4419;50.882;4.718;2022-09-03T18:29:15;23.90;93.90
13529;DHT22;4419;50.882;4.718;2022-09-03T18:32:00;24.00;89.30
13529;DHT22;4419;50.882;4.718;2022-09-03T18:34:45;24.00;88.50
13529;DHT22;4419;50.882;4.718;2022-09-03T18:37:30;24.00;88.30
13529;DHT22;4419;50.882;4.718;2022-09-03T18:40:25;23.90;88.40
13529;DHT22;4419;50.882;4.718;2022-09-03T18:48:52;23.80;79.80
13529;DHT22;4419;50.882;4.718;2022-09-03T18:57:32;23.80;77.30
13529;DHT22;4419;50.882;4.718;2022-09-03T19:00:21;23.80;77.20
13529;DHT22;4419;50.882;4.718;2022-09-03T19:08:43;23.70;76.90
13529;DHT22;4419;50.882;4.718;2022-09-03T19:14:36;23.60;86.10
13529;DHT22;4419;50.882;4.718;2022-09-03T19:22:50;23.40;97.40
13529;DHT22;4419;50.882;4.718;2022-09-03T19:25:35;23.30;98.90
13529;DHT22;4419;50.882;4.718;2022-09-03T19:28:20;23.40;99.80
13529;DHT22;4419;50.882;4.718;2022-09-03T19:34:10;23.30;99.90
13529;DHT22;4419;50.882;4.718;2022-09-03T19:37:04;23.30;99.90
13529;DHT22;4419;50.882;4.718;2022-09-03T19:40:08;23.30;99.90
13529;DHT22;4419;50.882;4.718;2022-09-03T19:51:43;23.10;99.90
13529;DHT22;4419;50.882;4.718;2022-09-03T19:54:29;23.10;99.90
13529;DHT22;4419;50.882;4.718;2022-09-03T19:57:14;23.10;99.90
13529;DHT22;4419;50.882;4.718;2022-09-03T20:00:01;22.90;99.90
13529;DHT22;4419;50.882;4.718;2022-09-03T20:02:47;22.90;99.90
13529;DHT22;4419;50.882;4.718;2022-09-03T20:05:31;22.90;99.90
13529;DHT22;4419;50.882;4.718;2022-09-03T20:08:16;22.90;99.90
13529;DHT22;4419;50.882;4.718;2022-09-03T20:11:00;22.90;99.90
13529;DHT22;4419;50.882;4.718;2022-09-03T20:13:27;22.90;99.90
13529;DHT22;4419;50.882;4.718;2022-09-03T20:16:18;22.80;99.90
13529;DHT22;4419;50.882;4.718;2022-09-03T20:21:24;22.80;99.90
13529;DHT22;4419;50.882;4.718;2022-09-03T20:41:56;22.90;99.90
13529;DHT22;4419;50.882;4.718;2022-09-03T20:47:22;22.90;99.90
13529;DHT22;4419;50.882;4.718;2022-09-03T20:49:59;22.90;99.90
13529;DHT22;4419;50.882;4.718;2022-09-03T20:55:20;22.90;99.90
13529;DHT22;4419;50.882;4.718;2022-09-03T20:57:55;22.90;99.90
13529;DHT22;4419;50.882;4.718;2022-09-03T21:00:23;22.90;99.90
13529;DHT22;4419;50.882;4.718;2022-09-03T21:05:45;22.70;99.90
13529;DHT22;4419;50.882;4.718;2022-09-03T21:15:52;22.50;99.90
13529;DHT22;4419;50.882;4.718;2022-09-03T21:28:24;22.30;99.90
13529;DHT22;4419;50.882;4.718;2022-09-03T21:30:53;22.30;99.90
13529;DHT22;4419;50.882;4.718;2022-09-03T21:33:22;22.20;99.90
13529;DHT22;4419;50.882;4.718;2022-09-03T21:36:51;22.30;99.90
13529;DHT22;4419;50.882;4.718;2022-09-03T21:38:46;22.10;99.90
13529;DHT22;4419;50.882;4.718;2022-09-03T21:43:45;22.10;99.90
13529;DHT22;4419;50.882;4.718;2022-09-03T21:46:16;22.00;99.90
13529;DHT22;4419;50.882;4.718;2022-09-03T21:48:59;22.10;99.90
13529;DHT22;4419;50.882;4.718;2022-09-03T21:51:30;22.10;99.90
13529;DHT22;4419;50.882;4.718;2022-09-03T22:03:55;21.90;99.90
13529;DHT22;4419;50.882;4.718;2022-09-03T22:06:24;21.90;99.90
13529;DHT22;4419;50.882;4.718;2022-09-03T22:11:20;21.90;99.90
13529;DHT22;4419;50.882;4.718;2022-09-03T22:13:50;21.90;99.90
13529;DHT22;4419;50.882;4.718;2022-09-03T22:19:01;21.70;99.90
13529;DHT22;4419;50.882;4.718;2022-09-03T22:21:28;21.60;99.90
13529;DHT22;4419;50.882;4.718;2022-09-03T22:26:34;21.60;99.90
13529;DHT22;4419;50.882;4.718;2022-09-03T22:31:47;21.60;99.90
13529;DHT22;4419;50.882;4.718;2022-09-03T22:34:23;21.50;99.90
13529;DHT22;4419;50.882;4.718;2022-09-03T22:36:50;21.50;99.90
13529;DHT22;4419;50.882;4.718;2022-09-03T22:39:21;21.40;99.90
13529;DHT22;4419;50.882;4.718;2022-09-03T22:47:03;21.30;99.90
13529;DHT22;4419;50.882;4.718;2022-09-03T22:49:34;21.40;99.90